Airfield :
LOGIN :

Register | Disclaimer

   EN    FR    IT 

 










Legend :    VFR   Marginal VFR   IFR   Intensive IFR   Very Intensive IFR
Visi :
Ceiling :
>= 8 km
>= 3000ft
5 to 8 km
1000 to 3000 ft
1500m to 5 km
500 to 1000 ft
800 to 1500m
200 to 500 ft
< 800m
< 200 ft
Symbols :   Thunderstorms  Fog  Heavy snow  Heavy precipitations  Wind > 20 kt
SIGMETs :     Misc.  Thunderstorms  Icing  Turbulence  Mountain Waves  Volcanic Ashes






- Airport Elevation : 1416 ft
- IATA code : ZRH


LSZH - Zurich

CURRENT METAR :
  • 262120Z 15002KT 9999 -SHRA FEW030 BKN040 03/02 Q1020 TEMPO SHRA

EXPIRED METARs :
  • 262050Z VRB02KT 9999 -SHRA FEW015 BKN045 03/02 Q1020 TEMPO SHRA
  • 262020Z VRB02KT 9999 -RA FEW040 BKN060 04/01 Q1019 NOSIG
  • 261950Z 22003KT 9999 -RA FEW040 BKN050 04/01 Q1020 NOSIG
  • 261920Z 16003KT 9999 FEW040 BKN055 04/01 Q1020 NOSIG
  • 261850Z 16005KT 9999 -RA FEW040 BKN060 04/01 Q1019 NOSIG

TAF TAF LSZH
Valid from the 26 at 21:00 until the 28 at 03:00 UTC


262025Z 2621/2803 VRB03KT 9999 FEW040 BKN050 TX07/2714Z TN00/2705Z
PROB40
TEMPO 2621/2703 RA
PROB40 2703/2709 1500 BCFG BKN003
PROB30 2704/2709 0400 FG VV002
TEMPO 2720/2803 24010KT RA
ATIS : +41 43 816 2295 (DEP) +41 43 816 2294 (ARR)



MET'MAP, your aeronautical weather chart ! - Copyright ORBIFLY December 2007 - Disclaimer

ORBIFLY MET'MAP TEAM :

Programming & Development : Alexandra Zaïnal
Concept & original design : Baudouin d'Aumeries
Assistance for programming : Marc-Olivier Méhu
Technical & hardware support : Manuel Goepfert

Contact : metmap@orbifly.com




SOURCES & CREDITS :

   NOAA